createdAt,value
2016-10-06T00:00:50.325Z,82.54
2016-10-06T00:05:46.750Z,83.87
2016-10-06T00:10:43.923Z,83.20
2016-10-06T00:15:40.254Z,83.78
2016-10-06T00:20:37.277Z,83.39
2016-10-06T00:25:34.012Z,84.44
2016-10-06T00:30:30.428Z,84.53
2016-10-06T00:35:26.787Z,84.44
2016-10-06T00:40:23.320Z,83.78
2016-10-06T00:45:19.740Z,83.49
2016-10-06T00:50:16.991Z,84.44
2016-10-06T00:55:13.244Z,84.06
2016-10-06T01:00:09.757Z,84.16
2016-10-06T01:05:06.438Z,84.53
2016-10-06T01:10:03.029Z,84.72
2016-10-06T01:14:59.458Z,85.49
2016-10-06T01:19:55.441Z,85.39
2016-10-06T01:24:54.294Z,85.01
2016-10-06T01:29:49.648Z,85.77
2016-10-06T01:34:46.069Z,86.01
2016-10-06T01:39:42.511Z,84.91
2016-10-06T01:44:39.123Z,85.91
2016-10-06T01:49:35.477Z,86.49
2016-10-06T01:54:31.900Z,85.63
2016-10-06T01:59:28.953Z,86.30
2016-10-06T02:04:25.489Z,86.01
2016-10-06T02:09:22.245Z,85.77
2016-10-06T02:14:18.784Z,85.77
2016-10-06T02:19:15.253Z,85.30
2016-10-06T02:24:11.745Z,84.44
2016-10-06T02:29:08.600Z,84.72
2016-10-06T02:34:05.051Z,85.20
2016-10-06T02:39:02.494Z,85.11
2016-10-06T02:43:59.267Z,85.30
2016-10-06T02:48:55.869Z,84.82
2016-10-06T02:53:52.409Z,84.63
2016-10-06T02:58:48.761Z,85.30
2016-10-06T03:03:46.794Z,85.30
2016-10-06T03:13:42.802Z,85.58
2016-10-06T03:18:39.245Z,86.05
2016-10-06T03:23:35.703Z,85.96
2016-10-06T03:28:33.250Z,85.30
2016-10-06T03:33:29.510Z,85.11
2016-10-06T03:38:26.340Z,84.91
2016-10-06T03:43:25.338Z,84.53
2016-10-06T03:48:21.208Z,83.59
2016-10-06T03:53:17.805Z,83.91
2016-10-06T03:58:14.383Z,83.25
2016-10-06T04:03:10.890Z,82.77
2016-10-06T04:08:07.181Z,82.58
2016-10-06T04:13:03.613Z,82.20
2016-10-06T04:18:00.763Z,81.82
2016-10-06T04:22:57.420Z,81.54
2016-10-06T04:27:53.888Z,81.16
2016-10-06T04:32:50.387Z,80.96
2016-10-06T04:37:46.858Z,80.87
2016-10-06T04:42:43.504Z,80.77
2016-10-06T04:47:41.022Z,80.87
2016-10-06T04:52:37.272Z,80.02
2016-10-06T04:57:33.444Z,79.92
2016-10-06T05:02:29.902Z,80.30
2016-10-06T05:07:26.308Z,79.44
2016-10-06T05:12:22.571Z,80.11
2016-10-06T05:17:19.595Z,79.92
2016-10-06T05:22:16.464Z,79.73
2016-10-06T05:27:13.605Z,79.16
2016-10-06T05:32:10.899Z,79.35
2016-10-06T05:37:07.352Z,79.35
2016-10-06T05:42:04.715Z,79.54
2016-10-06T05:47:01.053Z,79.73
2016-10-06T05:51:57.567Z,79.44
2016-10-06T05:56:53.891Z,79.39
2016-10-06T06:01:50.722Z,80.02
2016-10-06T06:06:47.319Z,79.86
2016-10-06T06:11:43.793Z,79.49
2016-10-06T06:16:40.348Z,79.30
2016-10-06T06:21:36.995Z,78.53
2016-10-06T06:26:33.315Z,78.06
2016-10-06T06:31:29.969Z,78.25
2016-10-06T06:36:26.612Z,78.63
2016-10-06T06:41:23.149Z,78.16
2016-10-06T06:46:19.611Z,77.49
2016-10-06T06:51:16.169Z,77.30
2016-10-06T06:56:12.726Z,76.92
2016-10-06T07:01:09.438Z,77.49
2016-10-06T07:06:06.974Z,77.20
2016-10-06T07:11:04.754Z,77.11
2016-10-06T07:16:00.978Z,77.39
2016-10-06T07:20:58.020Z,77.01
2016-10-06T07:25:53.984Z,77.11
2016-10-06T07:30:51.020Z,77.30
2016-10-06T07:35:47.754Z,77.20
2016-10-06T07:40:43.824Z,77.20
2016-10-06T07:45:41.239Z,77.39
2016-10-06T07:50:37.762Z,77.30
2016-10-06T07:55:34.294Z,77.24
2016-10-06T08:00:30.708Z,77.91
2016-10-06T08:05:27.570Z,77.72
2016-10-06T08:10:23.955Z,78.16
2016-10-06T08:15:20.419Z,78.86
2016-10-06T08:20:16.981Z,78.67
2016-10-06T08:25:13.680Z,79.05
2016-10-06T08:30:10.324Z,80.00
2016-10-06T08:35:06.823Z,79.81
2016-10-06T08:40:03.413Z,80.38
2016-10-06T08:44:59.964Z,81.52
2016-10-06T08:49:56.237Z,82.00
2016-10-06T08:54:52.973Z,81.52
2016-10-06T08:59:49.906Z,81.90
2016-10-06T09:04:45.980Z,82.00
2016-10-06T09:09:42.420Z,82.28
2016-10-06T09:14:38.803Z,81.62
2016-10-06T09:19:35.708Z,82.14
2016-10-06T09:24:32.779Z,82.32
2016-10-06T09:29:30.342Z,82.42
2016-10-06T09:34:26.547Z,82.67
2016-10-06T09:39:23.238Z,83.71
2016-10-06T09:44:20.585Z,83.14
2016-10-06T09:49:16.753Z,83.14
2016-10-06T09:54:13.552Z,83.04
2016-10-06T09:59:10.113Z,82.67
2016-10-06T10:04:06.506Z,82.80
2016-10-06T10:09:02.893Z,83.37
2016-10-06T10:13:59.335Z,83.71
2016-10-06T10:18:56.038Z,83.47
2016-10-06T10:23:52.126Z,83.37
2016-10-06T10:28:48.977Z,83.65
2016-10-06T10:33:45.510Z,83.37
2016-10-06T10:38:43.291Z,82.80
2016-10-06T10:43:39.622Z,83.09
2016-10-06T10:48:36.193Z,82.70
2016-10-06T10:53:32.670Z,84.04
2016-10-06T10:58:28.729Z,83.47
2016-10-06T11:03:25.671Z,83.28
2016-10-06T11:08:22.475Z,83.37
2016-10-06T11:13:19.259Z,82.56
2016-10-06T11:18:15.835Z,83.32
2016-10-06T11:23:12.309Z,83.51
2016-10-06T11:28:08.836Z,83.89
2016-10-06T11:33:05.386Z,83.51
2016-10-06T11:38:02.034Z,83.70
2016-10-06T11:42:58.683Z,82.60
2016-10-06T11:47:57.416Z,83.07
2016-10-06T11:52:53.431Z,82.31
2016-10-06T11:57:50.200Z,82.21
2016-10-06T12:02:46.890Z,82.03
2016-10-06T12:07:43.244Z,82.50
2016-10-06T12:12:39.789Z,81.55
2016-10-06T12:17:36.375Z,82.12
2016-10-06T12:22:32.650Z,82.41
2016-10-06T12:27:29.326Z,82.69
2016-10-06T12:32:25.557Z,82.12
2016-10-06T12:37:22.278Z,82.50
2016-10-06T12:42:18.974Z,81.78
2016-10-06T12:47:15.356Z,81.02
2016-10-06T12:52:12.086Z,81.02
2016-10-06T12:57:08.628Z,81.59
2016-10-06T13:02:05.248Z,81.21
2016-10-06T13:07:02.206Z,81.78
2016-10-06T13:11:58.670Z,82.73
2016-10-06T13:16:54.992Z,82.54
2016-10-06T13:21:51.457Z,83.50
2016-10-06T13:26:47.703Z,83.26
2016-10-06T13:31:46.617Z,83.40
2016-10-06T13:36:42.734Z,83.59
2016-10-06T13:41:39.340Z,83.59
2016-10-06T13:46:37.074Z,83.88
2016-10-06T13:51:33.192Z,83.97
2016-10-06T13:56:29.844Z,83.69
2016-10-06T14:01:26.374Z,83.88
2016-10-06T14:06:23.029Z,84.74
2016-10-06T14:11:19.690Z,85.02
2016-10-06T14:16:16.211Z,84.64
2016-10-06T14:21:12.936Z,84.92
2016-10-06T14:26:09.534Z,84.45
2016-10-06T14:31:06.305Z,85.02
2016-10-06T14:36:02.922Z,85.02
2016-10-06T14:40:59.633Z,85.60
2016-10-06T14:45:56.410Z,85.41
2016-10-06T14:50:52.871Z,85.31
2016-10-06T14:55:49.546Z,85.78
2016-10-06T15:00:46.468Z,85.97
2016-10-06T15:05:43.387Z,86.26
2016-10-06T15:10:39.798Z,86.16
2016-10-06T15:15:36.821Z,85.97
2016-10-06T15:20:33.066Z,86.26
2016-10-06T15:25:30.802Z,87.31
2016-10-06T15:30:26.951Z,88.55
2016-10-06T15:35:23.235Z,89.50
2016-10-06T15:40:21.654Z,90.98
2016-10-06T15:45:18.028Z,91.55
2016-10-06T15:50:14.706Z,92.22
2016-10-06T15:55:10.852Z,92.69
2016-10-06T16:00:08.408Z,91.94
2016-10-06T16:05:04.553Z,91.94
2016-10-06T16:10:01.407Z,92.50
2016-10-06T16:14:57.854Z,92.79
2016-10-06T16:19:54.621Z,93.37
2016-10-06T16:24:51.296Z,94.60
2016-10-06T16:29:47.840Z,95.36
2016-10-06T16:34:44.786Z,95.84
2016-10-06T16:39:41.323Z,96.03
2016-10-06T16:44:37.400Z,96.55
2016-10-06T16:49:34.466Z,97.03
2016-10-06T16:54:30.793Z,97.22
2016-10-06T16:59:27.367Z,97.03
2016-10-06T17:04:23.807Z,97.31
2016-10-06T17:09:20.118Z,96.65
2016-10-06T17:14:17.200Z,96.36
2016-10-06T17:19:14.333Z,96.32
2016-10-06T17:24:10.989Z,96.32
2016-10-06T17:29:07.320Z,95.75
2016-10-06T17:34:03.635Z,95.75
2016-10-06T17:39:00.092Z,95.75
2016-10-06T17:43:58.363Z,95.51
2016-10-06T17:48:54.518Z,95.98
2016-10-06T17:53:51.151Z,95.70
2016-10-06T17:58:48.076Z,95.75
2016-10-06T18:03:44.737Z,95.27
2016-10-06T18:08:41.003Z,95.22
2016-10-06T18:13:37.408Z,96.08
2016-10-06T18:18:33.920Z,95.94
2016-10-06T18:23:33.203Z,96.12
2016-10-06T18:28:28.790Z,95.51
2016-10-06T18:33:25.740Z,96.12
2016-10-06T18:38:21.779Z,96.27
2016-10-06T18:43:18.841Z,95.70
2016-10-06T18:48:15.034Z,95.75
2016-10-06T18:53:12.362Z,95.46
2016-10-06T18:58:09.371Z,95.75
2016-10-06T19:03:06.129Z,95.94
2016-10-06T19:08:02.463Z,95.94
2016-10-06T19:12:59.079Z,95.56
2016-10-06T19:17:55.450Z,94.98
2016-10-06T19:22:51.925Z,95.27
2016-10-06T19:27:48.445Z,94.98
2016-10-06T19:32:45.197Z,95.08
2016-10-06T19:37:41.497Z,95.08
2016-10-06T19:42:38.181Z,94.98
2016-10-06T19:47:34.772Z,94.98
2016-10-06T19:52:32.309Z,94.98
2016-10-06T19:57:28.691Z,94.98
2016-10-06T20:02:25.482Z,95.27
2016-10-06T20:07:22.333Z,95.56
2016-10-06T20:12:18.573Z,95.08
2016-10-06T20:17:15.062Z,95.84
2016-10-06T20:22:11.587Z,96.22
2016-10-06T20:27:07.936Z,95.27
2016-10-06T20:32:04.450Z,95.65
2016-10-06T20:37:01.697Z,95.84
2016-10-06T20:41:58.317Z,95.84
2016-10-06T20:46:54.532Z,95.75
2016-10-06T20:51:51.565Z,95.94
2016-10-06T20:56:48.366Z,95.56
2016-10-06T21:01:47.419Z,96.60
2016-10-06T21:06:43.354Z,96.22
2016-10-06T21:11:40.474Z,96.03
2016-10-06T21:16:36.882Z,96.12
2016-10-06T21:21:33.633Z,96.32
2016-10-06T21:26:30.141Z,96.32
2016-10-06T21:31:26.711Z,96.70
2016-10-06T21:36:23.208Z,96.51
2016-10-06T21:41:19.843Z,96.98
2016-10-06T21:46:16.247Z,96.89
2016-10-06T21:51:12.801Z,97.27
2016-10-06T21:56:10.311Z,97.89
2016-10-06T22:01:07.989Z,97.60
2016-10-06T22:06:04.442Z,98.60
2016-10-06T22:11:01.493Z,98.46
2016-10-06T22:15:58.805Z,98.65
2016-10-06T22:20:55.397Z,98.74
2016-10-06T22:25:51.842Z,98.65
2016-10-06T22:30:48.387Z,99.13
2016-10-06T22:35:46.080Z,99.69
2016-10-06T22:40:42.283Z,99.51
2016-10-06T22:45:38.877Z,99.41
2016-10-06T22:50:35.455Z,99.41
2016-10-06T22:55:32.061Z,98.84
2016-10-06T23:00:28.774Z,99.51
2016-10-06T23:05:25.243Z,99.41
2016-10-06T23:10:21.745Z,98.55
2016-10-06T23:15:18.333Z,98.65
2016-10-06T23:20:14.855Z,98.41
2016-10-06T23:25:11.533Z,98.41
2016-10-06T23:30:09.670Z,98.36
2016-10-06T23:35:06.365Z,97.65
2016-10-06T23:40:03.617Z,97.84
2016-10-06T23:45:01.386Z,98.03
2016-10-06T23:49:57.715Z,97.75
2016-10-06T23:54:54.431Z,97.08
2016-10-06T23:59:50.902Z,97.08
